Terminal Aerodrome Forecast
Issued by NWS Goodland, KS

Home | Current Version | Previous Version | Text Only | Print | Product List | Glossary On
Versions: 1 2 3 4 5 6 7 8 9 10 11 12 13 14 15 16 17 18 19 20
000
FTUS43 KGLD 200520
TAFGLD
TAF
KGLD 200520Z 2006/2106 06006KT P6SM OVC005
     FM200900 01007KT 2SM BR OVC002
      TEMPO 2010/2014 3/4SM BR OVC001
     FM201500 03008KT P6SM OVC003
     FM201800 04008KT P6SM BKN015
     FM202300 06009KT P6SM BKN040=

USA.gov is the U.S. government's official web portal to all federal, state and local government web resources and services.